Alamogordo White Sands Regional Airport
KALM : now visible

Airfield :











YOU CAN JOIN US ON...

 
LOGIN :

Register | Disclaimer

   EN    FR    IT 

 









Legend :    VFR   Marginal VFR   IFR   Intensive IFR   Very Intensive IFR
Visi :
Ceiling :
>= 8 km
>= 3000ft
5 to 8 km
1000 to 3000 ft
1500m to 5 km
500 to 1000 ft
800 to 1500m
200 to 500 ft
< 800m
< 200 ft
Symbols :   Thunderstorms  Fog  Heavy snow  Heavy precipitations  Wind > 20 kt






- Airport Elevation : 4200 ft
- IATA code : ALM


KALM - Alamogordo White Sands Regional

CURRENT METAR :
  • 041655Z AUTO 16004KT 10SM CLR 32/10 A3013 RMK AO2

EXPIRED METARs :
  • 041635Z AUTO 24004KT 10SM CLR 31/11 A3013 RMK AO2
  • 041615Z AUTO 27003KT 10SM CLR 30/11 A3014 RMK AO2
  • 041555Z AUTO 22004KT 10SM CLR 30/11 A3014 RMK AO2
  • 041535Z AUTO 26004KT 10SM CLR 29/12 A3014 RMK AO2
  • 041515Z AUTO 00000KT 10SM CLR 28/12 A3014 RMK AO2
  • 041455Z AUTO 24004KT 10SM CLR 28/12 A3014 RMK AO2
  • 041435Z AUTO 27007KT 10SM CLR 27/12 A3013 RMK AO2
  • 041415Z AUTO 28013KT 10SM CLR 28/12 A3013 RMK AO2

TAF N/A
KZAB FIR / North America



MET'MAP, your aeronautical weather chart ! - Copyright ORBIFLY December 2007 - Disclaimer

ORBIFLY MET'MAP TEAM :

Programming & Development : Alexandra Zaïnal
Concept & original design : Baudouin d'Aumeries
Assistance for programming : Marc-Olivier Méhu
Technical & hardware support : Manuel Goepfert

Contact : metmap@orbifly.com




SOURCES & CREDITS :

   NOAA       Earth
Advisory